sensor_id;sensor_type;location;lat;lon;timestamp;pressure;altitude;pressure_sealevel;temperature;humidity
40592;BME280;26301;42.832;23.918;2022-12-10T00:01:15;92446.28;;;12.80;62.04
40592;BME280;26301;42.832;23.918;2022-12-10T00:03:42;92428.91;;;12.75;61.19
40592;BME280;26301;42.832;23.918;2022-12-10T00:06:12;92424.47;;;12.91;60.49
40592;BME280;26301;42.832;23.918;2022-12-10T00:08:38;92427.13;;;12.76;61.01
40592;BME280;26301;42.832;23.918;2022-12-10T00:11:09;92430.50;;;12.76;61.57
40592;BME280;26301;42.832;23.918;2022-12-10T00:13:35;92414.78;;;12.52;62.05
40592;BME280;26301;42.832;23.918;2022-12-10T00:16:03;92438.28;;;12.66;62.41
40592;BME280;26301;42.832;23.918;2022-12-10T00:18:29;92417.31;;;12.63;60.78
40592;BME280;26301;42.832;23.918;2022-12-10T00:20:55;92416.31;;;12.58;61.58
40592;BME280;26301;42.832;23.918;2022-12-10T00:23:20;92449.22;;;12.58;63.17
40592;BME280;26301;42.832;23.918;2022-12-10T00:25:46;92434.72;;;12.52;62.81
40592;BME280;26301;42.832;23.918;2022-12-10T00:28:12;92448.69;;;12.51;62.56
40592;BME280;26301;42.832;23.918;2022-12-10T00:30:37;92436.31;;;12.43;63.74
40592;BME280;26301;42.832;23.918;2022-12-10T00:33:03;92441.22;;;12.39;63.46
40592;BME280;26301;42.832;23.918;2022-12-10T00:35:29;92449.25;;;12.27;63.86
40592;BME280;26301;42.832;23.918;2022-12-10T00:37:55;92404.22;;;12.28;62.94
40592;BME280;26301;42.832;23.918;2022-12-10T00:40:21;92450.81;;;12.33;64.10
40592;BME280;26301;42.832;23.918;2022-12-10T00:42:47;92420.56;;;12.13;64.18
40592;BME280;26301;42.832;23.918;2022-12-10T00:45:12;92446.69;;;12.12;64.14
40592;BME280;26301;42.832;23.918;2022-12-10T00:47:38;92452.63;;;12.18;63.88
40592;BME280;26301;42.832;23.918;2022-12-10T00:50:04;92445.91;;;12.17;63.52
40592;BME280;26301;42.832;23.918;2022-12-10T00:52:30;92452.63;;;12.18;63.87
40592;BME280;26301;42.832;23.918;2022-12-10T00:54:55;92455.69;;;12.50;62.25
40592;BME280;26301;42.832;23.918;2022-12-10T00:57:21;92438.41;;;12.30;63.67
40592;BME280;26301;42.832;23.918;2022-12-10T00:59:46;92443.75;;;12.54;62.91
40592;BME280;26301;42.832;23.918;2022-12-10T01:02:12;92448.69;;;12.51;62.33
40592;BME280;26301;42.832;23.918;2022-12-10T01:04:38;92442.22;;;12.58;62.78
40592;BME280;26301;42.832;23.918;2022-12-10T01:07:03;92434.19;;;12.45;63.51
40592;BME280;26301;42.832;23.918;2022-12-10T01:09:30;92451.56;;;12.49;63.51
40592;BME280;26301;42.832;23.918;2022-12-10T01:11:59;92420.28;;;12.30;63.33
40592;BME280;26301;42.832;23.918;2022-12-10T01:14:32;92430.34;;;12.32;63.58
40592;BME280;26301;42.832;23.918;2022-12-10T01:17:00;92448.97;;;12.44;63.55
40592;BME280;26301;42.832;23.918;2022-12-10T01:19:28;92447.69;;;12.47;63.12
40592;BME280;26301;42.832;23.918;2022-12-10T01:21:55;92431.13;;;12.38;62.81
40592;BME280;26301;42.832;23.918;2022-12-10T01:24:22;92440.44;;;12.39;63.43
40592;BME280;26301;42.832;23.918;2022-12-10T01:26:48;92431.41;;;12.26;63.11
40592;BME280;26301;42.832;23.918;2022-12-10T01:29:14;92446.38;;;12.39;63.00
40592;BME280;26301;42.832;23.918;2022-12-10T01:31:40;92439.91;;;12.47;61.94
40592;BME280;26301;42.832;23.918;2022-12-10T01:34:09;92434.50;;;12.33;63.10
40592;BME280;26301;42.832;23.918;2022-12-10T01:36:39;92424.16;;;12.23;63.24
40592;BME280;26301;42.832;23.918;2022-12-10T01:39:07;92455.19;;;12.38;63.89
40592;BME280;26301;42.832;23.918;2022-12-10T01:41:36;92431.16;;;12.22;63.91
40592;BME280;26301;42.832;23.918;2022-12-10T01:46:39;92470.25;;;12.31;64.43
40592;BME280;26301;42.832;23.918;2022-12-10T01:49:08;92451.59;;;12.34;64.36
40592;BME280;26301;42.832;23.918;2022-12-10T01:51:36;92447.47;;;12.28;64.93
40592;BME280;26301;42.832;23.918;2022-12-10T01:54:06;92454.97;;;12.29;64.77
40592;BME280;26301;42.832;23.918;2022-12-10T01:56:36;92453.16;;;12.25;64.92
40592;BME280;26301;42.832;23.918;2022-12-10T01:59:03;92460.69;;;12.16;65.36
40592;BME280;26301;42.832;23.918;2022-12-10T02:01:42;92427.56;;;11.98;65.58
40592;BME280;26301;42.832;23.918;2022-12-10T02:04:33;92455.47;;;12.21;65.75
40592;BME280;26301;42.832;23.918;2022-12-10T02:10:13;92445.13;;;12.21;65.48
40592;BME280;26301;42.832;23.918;2022-12-10T02:12:57;92457.28;;;12.26;65.98
40592;BME280;26301;42.832;23.918;2022-12-10T02:15:32;92465.84;;;12.31;65.76
40592;BME280;26301;42.832;23.918;2022-12-10T02:18:27;92453.41;;;12.18;66.88
40592;BME280;26301;42.832;23.918;2022-12-10T02:21:00;92438.94;;;12.17;66.28
40592;BME280;26301;42.832;23.918;2022-12-10T02:23:32;92434.53;;;12.18;65.27
40592;BME280;26301;42.832;23.918;2022-12-10T02:26:03;92441.25;;;12.29;64.92
40592;BME280;26301;42.832;23.918;2022-12-10T02:29:01;92451.34;;;12.20;66.29
40592;BME280;26301;42.832;23.918;2022-12-10T02:31:32;92427.81;;;12.06;66.66
40592;BME280;26301;42.832;23.918;2022-12-10T02:33:59;92423.91;;;12.14;65.81
40592;BME280;26301;42.832;23.918;2022-12-10T02:36:29;92408.91;;;12.06;64.72
40592;BME280;26301;42.832;23.918;2022-12-10T02:38:59;92423.63;;;12.31;63.39
40592;BME280;26301;42.832;23.918;2022-12-10T02:41:37;92411.22;;;12.18;63.81
40592;BME280;26301;42.832;23.918;2022-12-10T02:44:09;92427.50;;;12.39;63.93
40592;BME280;26301;42.832;23.918;2022-12-10T02:46:38;92428.25;;;12.44;64.18
40592;BME280;26301;42.832;23.918;2022-12-10T02:49:06;92406.81;;;12.23;64.92
40592;BME280;26301;42.832;23.918;2022-12-10T02:51:32;92422.31;;;12.44;63.86
40592;BME280;26301;42.832;23.918;2022-12-10T02:54:03;92399.56;;;12.30;64.15
40592;BME280;26301;42.832;23.918;2022-12-10T02:59:45;92372.13;;;12.19;63.80
40592;BME280;26301;42.832;23.918;2022-12-10T03:02:27;92404.47;;;12.32;64.63
40592;BME280;26301;42.832;23.918;2022-12-10T03:05:21;92407.81;;;12.27;64.18
40592;BME280;26301;42.832;23.918;2022-12-10T03:10:26;92376.25;;;12.25;63.13
40592;BME280;26301;42.832;23.918;2022-12-10T03:13:03;92404.41;;;12.47;62.99
40592;BME280;26301;42.832;23.918;2022-12-10T03:15:34;92386.81;;;12.39;62.74
40592;BME280;26301;42.832;23.918;2022-12-10T03:18:02;92399.75;;;12.44;63.80
40592;BME280;26301;42.832;23.918;2022-12-10T03:20:30;92379.09;;;12.29;63.77
40592;BME280;26301;42.832;23.918;2022-12-10T03:22:58;92394.81;;;12.53;63.92
40592;BME280;26301;42.832;23.918;2022-12-10T03:25:26;92371.56;;;12.27;63.99
40592;BME280;26301;42.832;23.918;2022-12-10T03:27:54;92381.34;;;12.51;63.17
40592;BME280;26301;42.832;23.918;2022-12-10T03:30:21;92396.88;;;12.51;63.32
40592;BME280;26301;42.832;23.918;2022-12-10T03:32:47;92394.81;;;12.53;63.47
40592;BME280;26301;42.832;23.918;2022-12-10T03:35:15;92395.56;;;12.58;64.04
40592;BME280;26301;42.832;23.918;2022-12-10T03:37:42;92383.19;;;12.45;64.07
40592;BME280;26301;42.832;23.918;2022-12-10T03:40:08;92386.81;;;12.49;65.27
40592;BME280;26301;42.832;23.918;2022-12-10T03:42:36;92377.75;;;12.42;65.57
40592;BME280;26301;42.832;23.918;2022-12-10T03:45:03;92362.03;;;12.18;66.16
40592;BME280;26301;42.832;23.918;2022-12-10T03:47:28;92364.13;;;12.16;66.51
40592;BME280;26301;42.832;23.918;2022-12-10T03:49:54;92376.75;;;12.32;67.83
40592;BME280;26301;42.832;23.918;2022-12-10T03:52:20;92364.59;;;12.28;68.08
40592;BME280;26301;42.832;23.918;2022-12-10T03:54:45;92385.56;;;12.31;68.45
40592;BME280;26301;42.832;23.918;2022-12-10T03:57:11;92377.03;;;12.26;69.45
40592;BME280;26301;42.832;23.918;2022-12-10T03:59:37;92386.09;;;12.28;69.14
40592;BME280;26301;42.832;23.918;2022-12-10T04:02:03;92373.47;;;12.06;69.26
40592;BME280;26301;42.832;23.918;2022-12-10T04:04:29;92367.00;;;12.04;70.14
40592;BME280;26301;42.832;23.918;2022-12-10T04:06:55;92368.03;;;12.03;70.69
40592;BME280;26301;42.832;23.918;2022-12-10T04:09:21;92363.38;;;12.05;68.97
40592;BME280;26301;42.832;23.918;2022-12-10T04:11:46;92353.75;;;12.21;67.41
40592;BME280;26301;42.832;23.918;2022-12-10T04:14:13;92368.25;;;12.11;68.24
40592;BME280;26301;42.832;23.918;2022-12-10T04:16:57;92387.09;;;12.38;66.88
40592;BME280;26301;42.832;23.918;2022-12-10T04:19:23;92391.00;;;12.30;68.45
40592;BME280;26301;42.832;23.918;2022-12-10T04:21:49;92402.41;;;12.34;66.77
40592;BME280;26301;42.832;23.918;2022-12-10T04:24:35;92379.66;;;12.05;67.47
40592;BME280;26301;42.832;23.918;2022-12-10T04:29:50;92414.34;;;12.20;68.08
40592;BME280;26301;42.832;23.918;2022-12-10T04:32:17;92423.66;;;12.16;68.46
40592;BME280;26301;42.832;23.918;2022-12-10T04:34:43;92395.72;;;12.02;68.58
40592;BME280;26301;42.832;23.918;2022-12-10T04:37:09;92404.25;;;12.13;67.09
40592;BME280;26301;42.832;23.918;2022-12-10T04:39:36;92418.72;;;12.24;66.94
40592;BME280;26301;42.832;23.918;2022-12-10T04:42:03;92426.72;;;12.33;67.94
40592;BME280;26301;42.832;23.918;2022-12-10T04:44:29;92398.03;;;12.19;66.78
40592;BME280;26301;42.832;23.918;2022-12-10T04:46:54;92416.16;;;12.19;68.31
40592;BME280;26301;42.832;23.918;2022-12-10T04:49:20;92401.13;;;12.16;66.49
40592;BME280;26301;42.832;23.918;2022-12-10T04:51:46;92407.09;;;12.22;68.30
40592;BME280;26301;42.832;23.918;2022-12-10T04:54:12;92403.97;;;12.15;67.72
40592;BME280;26301;42.832;23.918;2022-12-10T04:56:38;92406.59;;;12.09;70.00
40592;BME280;26301;42.832;23.918;2022-12-10T04:59:04;92436.31;;;12.32;70.77
40592;BME280;26301;42.832;23.918;2022-12-10T05:01:30;92426.22;;;12.21;71.80
40592;BME280;26301;42.832;23.918;2022-12-10T05:04:01;92409.16;;;12.15;73.40
40592;BME280;26301;42.832;23.918;2022-12-10T05:06:28;92440.22;;;12.25;72.91
40592;BME280;26301;42.832;23.918;2022-12-10T05:08:54;92409.19;;;11.99;77.21
40592;BME280;26301;42.832;23.918;2022-12-10T05:11:21;92449.03;;;11.98;79.74
40592;BME280;26301;42.832;23.918;2022-12-10T05:13:47;92443.34;;;11.91;77.46
40592;BME280;26301;42.832;23.918;2022-12-10T05:16:15;92427.28;;;11.79;79.15
40592;BME280;26301;42.832;23.918;2022-12-10T05:18:41;92408.66;;;11.72;81.80
40592;BME280;26301;42.832;23.918;2022-12-10T05:21:11;92424.69;;;11.79;84.63
40592;BME280;26301;42.832;23.918;2022-12-10T05:23:43;92409.69;;;11.50;82.88
40592;BME280;26301;42.832;23.918;2022-12-10T05:26:16;92437.09;;;11.66;86.01
40592;BME280;26301;42.832;23.918;2022-12-10T05:28:53;92391.81;;;11.33;90.29
40592;BME280;26301;42.832;23.918;2022-12-10T05:31:24;92433.97;;;11.49;90.95
40592;BME280;26301;42.832;23.918;2022-12-10T05:33:50;92416.09;;;11.22;87.01
40592;BME280;26301;42.832;23.918;2022-12-10T05:36:18;92429.06;;;11.32;88.00
40592;BME280;26301;42.832;23.918;2022-12-10T05:38:44;92407.56;;;11.21;87.39
40592;BME280;26301;42.832;23.918;2022-12-10T05:41:16;92427.25;;;11.33;86.18
40592;BME280;26301;42.832;23.918;2022-12-10T05:43:43;92421.81;;;11.24;88.33
40592;BME280;26301;42.832;23.918;2022-12-10T05:46:12;92418.97;;;11.26;88.33
40592;BME280;26301;42.832;23.918;2022-12-10T05:48:38;92411.72;;;11.28;87.13
40592;BME280;26301;42.832;23.918;2022-12-10T05:51:08;92440.72;;;11.35;88.63
40592;BME280;26301;42.832;23.918;2022-12-10T05:53:35;92424.66;;;11.23;90.40
40592;BME280;26301;42.832;23.918;2022-12-10T05:56:02;92409.38;;;11.06;93.70
40592;BME280;26301;42.832;23.918;2022-12-10T05:58:28;92447.13;;;11.22;96.24
40592;BME280;26301;42.832;23.918;2022-12-10T06:00:55;92436.78;;;11.17;95.49
40592;BME280;26301;42.832;23.918;2022-12-10T06:03:20;92444.28;;;11.18;93.51
40592;BME280;26301;42.832;23.918;2022-12-10T06:05:46;92458.78;;;11.19;93.56
40592;BME280;26301;42.832;23.918;2022-12-10T06:08:12;92448.13;;;11.06;96.18
40592;BME280;26301;42.832;23.918;2022-12-10T06:10:37;92429.69;;;10.82;95.69
40592;BME280;26301;42.832;23.918;2022-12-10T06:13:04;92428.63;;;10.72;97.44
40592;BME280;26301;42.832;23.918;2022-12-10T06:15:31;92450.03;;;10.68;100.00
40592;BME280;26301;42.832;23.918;2022-12-10T06:17:58;92464.00;;;10.67;100.00
40592;BME280;26301;42.832;23.918;2022-12-10T06:20:25;92457.28;;;10.66;100.00
40592;BME280;26301;42.832;23.918;2022-12-10T06:22:51;92454.13;;;10.59;100.00
40592;BME280;26301;42.832;23.918;2022-12-10T06:25:18;92462.97;;;10.63;100.00
40592;BME280;26301;42.832;23.918;2022-12-10T06:27:44;92438.34;;;10.45;100.00
40592;BME280;26301;42.832;23.918;2022-12-10T06:30:10;92460.59;;;10.61;100.00
40592;BME280;26301;42.832;23.918;2022-12-10T06:32:36;92470.19;;;10.66;100.00
40592;BME280;26301;42.832;23.918;2022-12-10T06:35:03;92466.03;;;10.65;100.00
40592;BME280;26301;42.832;23.918;2022-12-10T06:37:29;92460.59;;;10.61;100.00
40592;BME280;26301;42.832;23.918;2022-12-10T06:39:54;92452.63;;;10.63;100.00
40592;BME280;26301;42.832;23.918;2022-12-10T06:42:20;92439.94;;;10.61;100.00
40592;BME280;26301;42.832;23.918;2022-12-10T06:44:46;92458.59;;;10.68;100.00
40592;BME280;26301;42.832;23.918;2022-12-10T06:47:13;92451.81;;;10.57;100.00
40592;BME280;26301;42.832;23.918;2022-12-10T06:49:38;92414.59;;;10.48;100.00
40592;BME280;26301;42.832;23.918;2022-12-10T06:52:04;92450.78;;;10.58;100.00
40592;BME280;26301;42.832;23.918;2022-12-10T06:54:30;92444.88;;;10.68;97.00
40592;BME280;26301;42.832;23.918;2022-12-10T06:56:56;92427.03;;;10.56;100.00
40592;BME280;26301;42.832;23.918;2022-12-10T06:59:22;92437.91;;;10.63;99.83
40592;BME280;26301;42.832;23.918;2022-12-10T07:01:48;92433.00;;;10.67;100.00
40592;BME280;26301;42.832;23.918;2022-12-10T07:04:13;92428.03;;;10.55;100.00
40592;BME280;26301;42.832;23.918;2022-12-10T07:06:39;92459.91;;;10.76;100.00
40592;BME280;26301;42.832;23.918;2022-12-10T07:09:05;92443.94;;;10.84;90.68
40592;BME280;26301;42.832;23.918;2022-12-10T07:11:31;92426.84;;;10.73;92.92
40592;BME280;26301;42.832;23.918;2022-12-10T07:13:57;92471.38;;;10.95;91.03
40592;BME280;26301;42.832;23.918;2022-12-10T07:16:28;92434.09;;;10.81;95.95
40592;BME280;26301;42.832;23.918;2022-12-10T07:18:58;92457.38;;;10.91;99.26
40592;BME280;26301;42.832;23.918;2022-12-10T07:21:26;92428.16;;;10.81;89.47
40592;BME280;26301;42.832;23.918;2022-12-10T07:23:54;92462.31;;;10.98;97.92
40592;BME280;26301;42.832;23.918;2022-12-10T07:26:23;92438.78;;;10.89;100.00
40592;BME280;26301;42.832;23.918;2022-12-10T07:28:49;92424.56;;;10.87;98.67
40592;BME280;26301;42.832;23.918;2022-12-10T07:31:15;92438.53;;;10.96;99.17
40592;BME280;26301;42.832;23.918;2022-12-10T07:33:41;92431.03;;;10.89;100.00
40592;BME280;26301;42.832;23.918;2022-12-10T07:36:08;92447.34;;;11.05;92.02
40592;BME280;26301;42.832;23.918;2022-12-10T07:38:34;92432.06;;;10.93;95.75
40592;BME280;26301;42.832;23.918;2022-12-10T07:41:08;92420.19;;;10.92;93.01
40592;BME280;26301;42.832;23.918;2022-12-10T07:43:36;92410.63;;;10.93;91.49
40592;BME280;26301;42.832;23.918;2022-12-10T07:46:14;92426.16;;;11.08;88.20
40592;BME280;26301;42.832;23.918;2022-12-10T07:48:42;92422.81;;;11.08;86.88
40592;BME280;26301;42.832;23.918;2022-12-10T07:51:08;92427.47;;;11.21;89.87
40592;BME280;26301;42.832;23.918;2022-12-10T07:53:34;92426.72;;;11.20;92.46
40592;BME280;26301;42.832;23.918;2022-12-10T07:56:00;92440.94;;;11.23;98.52
40592;BME280;26301;42.832;23.918;2022-12-10T07:58:26;92430.31;;;11.25;99.04
40592;BME280;26301;42.832;23.918;2022-12-10T08:00:52;92412.22;;;11.14;99.86
40592;BME280;26301;42.832;23.918;2022-12-10T08:03:17;92395.19;;;11.24;86.50
40592;BME280;26301;42.832;23.918;2022-12-10T08:05:43;92423.91;;;11.53;85.54
40592;BME280;26301;42.832;23.918;2022-12-10T08:08:09;92424.69;;;11.48;88.73
40592;BME280;26301;42.832;23.918;2022-12-10T08:10:38;92424.41;;;11.55;92.80
40592;BME280;26301;42.832;23.918;2022-12-10T08:13:05;92411.00;;;11.53;92.83
40592;BME280;26301;42.832;23.918;2022-12-10T08:15:31;92410.47;;;11.61;87.85
40592;BME280;26301;42.832;23.918;2022-12-10T08:17:57;92410.97;;;11.73;87.68
40592;BME280;26301;42.832;23.918;2022-12-10T08:20:24;92418.47;;;11.70;93.86
40592;BME280;26301;42.832;23.918;2022-12-10T08:22:50;92405.53;;;11.54;94.22
40592;BME280;26301;42.832;23.918;2022-12-10T08:25:16;92379.44;;;11.35;92.45
40592;BME280;26301;42.832;23.918;2022-12-10T08:27:42;92400.13;;;11.51;97.33
40592;BME280;26301;42.832;23.918;2022-12-10T08:30:08;92377.38;;;11.48;94.33
40592;BME280;26301;42.832;23.918;2022-12-10T08:32:34;92393.66;;;11.58;96.30
40592;BME280;26301;42.832;23.918;2022-12-10T08:34:59;92368.84;;;11.47;92.05
40592;BME280;26301;42.832;23.918;2022-12-10T08:37:25;92379.16;;;11.73;89.81
40592;BME280;26301;42.832;23.918;2022-12-10T08:39:51;92388.47;;;11.68;94.96
40592;BME280;26301;42.832;23.918;2022-12-10T08:42:16;92386.16;;;11.72;87.03
40592;BME280;26301;42.832;23.918;2022-12-10T08:44:42;92386.16;;;11.72;89.71
40592;BME280;26301;42.832;23.918;2022-12-10T08:47:08;92352.28;;;11.74;90.64
40592;BME280;26301;42.832;23.918;2022-12-10T08:49:34;92373.47;;;11.96;85.17
40592;BME280;26301;42.832;23.918;2022-12-10T09:04:10;92345.19;;;13.30;75.39
40592;BME280;26301;42.832;23.918;2022-12-10T09:06:35;92328.50;;;13.01;74.45
40592;BME280;26301;42.832;23.918;2022-12-10T09:09:02;92357.50;;;13.09;77.17
40592;BME280;26301;42.832;23.918;2022-12-10T09:11:30;92355.72;;;12.99;79.09
40592;BME280;26301;42.832;23.918;2022-12-10T09:13:56;92340.47;;;12.97;78.61
40592;BME280;26301;42.832;23.918;2022-12-10T09:16:27;92349.69;;;13.14;73.93
40592;BME280;26301;42.832;23.918;2022-12-10T09:18:53;92339.88;;;13.05;75.93
40592;BME280;26301;42.832;23.918;2022-12-10T09:21:19;92314.22;;;13.04;83.65
40592;BME280;26301;42.832;23.918;2022-12-10T09:23:45;92303.56;;;13.05;77.47
40592;BME280;26301;42.832;23.918;2022-12-10T09:26:14;92287.84;;;12.97;76.67
40592;BME280;26301;42.832;23.918;2022-12-10T09:28:40;92305.59;;;13.14;76.27
40592;BME280;26301;42.832;23.918;2022-12-10T09:31:07;92307.16;;;13.15;74.70
40592;BME280;26301;42.832;23.918;2022-12-10T09:33:33;92287.78;;;13.07;72.23
40592;BME280;26301;42.832;23.918;2022-12-10T09:35:59;92298.78;;;13.23;73.73
40592;BME280;26301;42.832;23.918;2022-12-10T09:38:25;92309.91;;;13.34;73.20
40592;BME280;26301;42.832;23.918;2022-12-10T09:41:00;92296.59;;;13.45;71.23
40592;BME280;26301;42.832;23.918;2022-12-10T09:43:47;92274.78;;;13.46;70.92
40592;BME280;26301;42.832;23.918;2022-12-10T09:46:31;92284.56;;;13.55;71.69
40592;BME280;26301;42.832;23.918;2022-12-10T09:51:44;92273.63;;;13.58;71.55
40592;BME280;26301;42.832;23.918;2022-12-10T09:56:48;92240.47;;;13.55;70.87
40592;BME280;26301;42.832;23.918;2022-12-10T09:59:29;92266.16;;;13.80;71.04
40592;BME280;26301;42.832;23.918;2022-12-10T10:02:28;92266.59;;;13.87;69.96
40592;BME280;26301;42.832;23.918;2022-12-10T10:07:28;92241.50;;;14.02;67.82
40592;BME280;26301;42.832;23.918;2022-12-10T10:10:07;92245.38;;;14.04;66.58
40592;BME280;26301;42.832;23.918;2022-12-10T10:12:39;92234.66;;;14.11;65.60
40592;BME280;26301;42.832;23.918;2022-12-10T10:15:18;92218.03;;;14.31;66.94
40592;BME280;26301;42.832;23.918;2022-12-10T10:17:47;92220.94;;;14.29;66.58
40592;BME280;26301;42.832;23.918;2022-12-10T10:20:14;92202.31;;;14.22;64.07
40592;BME280;26301;42.832;23.918;2022-12-10T10:22:41;92217.28;;;14.30;66.11
40592;BME280;26301;42.832;23.918;2022-12-10T10:25:18;92272.25;;;14.37;66.94
40592;BME280;26301;42.832;23.918;2022-12-10T10:27:44;92206.63;;;14.08;67.17
40592;BME280;26301;42.832;23.918;2022-12-10T10:30:18;92195.34;;;13.99;66.13
40592;BME280;26301;42.832;23.918;2022-12-10T10:32:48;92193.25;;;14.19;66.21
40592;BME280;26301;42.832;23.918;2022-12-10T10:35:34;92204.00;;;14.13;65.80
40592;BME280;26301;42.832;23.918;2022-12-10T10:38:13;92244.00;;;14.12;65.36
40592;BME280;26301;42.832;23.918;2022-12-10T10:40:42;92222.50;;;14.06;64.91
40592;BME280;26301;42.832;23.918;2022-12-10T10:43:24;92225.94;;;14.02;65.67
40592;BME280;26301;42.832;23.918;2022-12-10T10:45:54;92217.22;;;13.92;64.88
40592;BME280;26301;42.832;23.918;2022-12-10T10:48:24;92225.94;;;14.02;66.79
40592;BME280;26301;42.832;23.918;2022-12-10T10:50:53;92202.47;;;13.88;66.36
40592;BME280;26301;42.832;23.918;2022-12-10T10:55:55;92217.28;;;13.87;66.07
40592;BME280;26301;42.832;23.918;2022-12-10T10:58:23;92220.47;;;14.03;67.42
40592;BME280;26301;42.832;23.918;2022-12-10T11:00:58;92217.59;;;14.05;66.89
40592;BME280;26301;42.832;23.918;2022-12-10T11:03:26;92210.47;;;14.15;65.42
40592;BME280;26301;42.832;23.918;2022-12-10T11:05:54;92190.69;;;13.95;66.08
40592;BME280;26301;42.832;23.918;2022-12-10T11:08:24;92206.09;;;14.11;66.03
40592;BME280;26301;42.832;23.918;2022-12-10T11:10:56;92199.97;;;14.02;66.83
40592;BME280;26301;42.832;23.918;2022-12-10T11:13:28;92212.69;;;14.22;66.83
40592;BME280;26301;42.832;23.918;2022-12-10T11:18:41;92177.19;;;14.17;63.25
40592;BME280;26301;42.832;23.918;2022-12-10T11:23:44;92184.44;;;14.21;66.74
40592;BME280;26301;42.832;23.918;2022-12-10T11:34:40;92191.31;;;14.30;63.64
40592;BME280;26301;42.832;23.918;2022-12-10T11:45:59;92179.28;;;14.34;64.57
40592;BME280;26301;42.832;23.918;2022-12-10T11:51:23;92162.03;;;14.25;64.84
40592;BME280;26301;42.832;23.918;2022-12-10T11:56:49;92171.59;;;14.29;63.98
40592;BME280;26301;42.832;23.918;2022-12-10T11:59:20;92170.94;;;14.37;64.67
40592;BME280;26301;42.832;23.918;2022-12-10T12:07:44;92099.16;;;13.90;65.52
40592;BME280;26301;42.832;23.918;2022-12-10T12:13:01;92159.72;;;14.42;66.75
40592;BME280;26301;42.832;23.918;2022-12-10T12:15:33;92144.97;;;14.37;66.08
40592;BME280;26301;42.832;23.918;2022-12-10T12:18:14;92126.91;;;14.46;66.46
40592;BME280;26301;42.832;23.918;2022-12-10T12:20:52;92140.84;;;14.55;65.12
40592;BME280;26301;42.832;23.918;2022-12-10T12:26:12;92127.41;;;14.48;64.02
40592;BME280;26301;42.832;23.918;2022-12-10T12:28:43;92121.50;;;14.43;64.97
40592;BME280;26301;42.832;23.918;2022-12-10T12:31:14;92127.00;;;14.41;64.98
40592;BME280;26301;42.832;23.918;2022-12-10T12:34:01;92123.84;;;14.44;63.79
40592;BME280;26301;42.832;23.918;2022-12-10T12:36:31;92126.91;;;14.46;63.36
40592;BME280;26301;42.832;23.918;2022-12-10T12:39:05;92122.47;;;14.47;63.13
40592;BME280;26301;42.832;23.918;2022-12-10T12:41:43;92111.75;;;14.34;64.87
40592;BME280;26301;42.832;23.918;2022-12-10T12:49:40;92101.59;;;14.19;66.77
40592;BME280;26301;42.832;23.918;2022-12-10T12:52:37;92110.03;;;14.30;64.92
40592;BME280;26301;42.832;23.918;2022-12-10T12:55:28;92072.91;;;14.10;65.45
40592;BME280;26301;42.832;23.918;2022-12-10T13:00:46;92057.81;;;14.12;65.06
40592;BME280;26301;42.832;23.918;2022-12-10T13:03:34;92071.06;;;14.30;66.04
40592;BME280;26301;42.832;23.918;2022-12-10T13:06:20;91996.72;;;13.82;65.39
40592;BME280;26301;42.832;23.918;2022-12-10T13:11:42;92044.06;;;14.12;65.39
40592;BME280;26301;42.832;23.918;2022-12-10T13:29:56;92042.16;;;13.99;66.77
40592;BME280;26301;42.832;23.918;2022-12-10T13:32:42;92046.88;;;13.97;66.71
40592;BME280;26301;42.832;23.918;2022-12-10T13:43:20;92066.72;;;13.68;69.04
40592;BME280;26301;42.832;23.918;2022-12-10T13:46:31;92051.22;;;13.63;68.69
40592;BME280;26301;42.832;23.918;2022-12-10T13:48:59;92021.13;;;13.43;69.26
40592;BME280;26301;42.832;23.918;2022-12-10T13:51:37;92032.00;;;13.64;69.04
40592;BME280;26301;42.832;23.918;2022-12-10T14:05:32;91997.88;;;13.57;68.03
40592;BME280;26301;42.832;23.918;2022-12-10T14:08:03;92003.47;;;13.64;67.10
40592;BME280;26301;42.832;23.918;2022-12-10T14:10:33;91984.66;;;13.35;68.42
40592;BME280;26301;42.832;23.918;2022-12-10T14:13:02;92006.69;;;13.37;69.16
40592;BME280;26301;42.832;23.918;2022-12-10T14:15:28;91997.78;;;13.43;68.53
40592;BME280;26301;42.832;23.918;2022-12-10T14:18:15;92012.53;;;13.48;67.96
40592;BME280;26301;42.832;23.918;2022-12-10T14:20:46;91993.81;;;13.51;67.51
40592;BME280;26301;42.832;23.918;2022-12-10T14:23:28;92015.88;;;13.48;69.78
40592;BME280;26301;42.832;23.918;2022-12-10T14:26:16;91999.06;;;13.46;69.21
40592;BME280;26301;42.832;23.918;2022-12-10T14:28:44;91984.09;;;13.38;70.56
40592;BME280;26301;42.832;23.918;2022-12-10T14:31:19;91994.69;;;13.41;68.56
40592;BME280;26301;42.832;23.918;2022-12-10T14:33:48;91987.00;;;13.36;69.37
40592;BME280;26301;42.832;23.918;2022-12-10T14:36:20;91995.09;;;13.30;69.35
40592;BME280;26301;42.832;23.918;2022-12-10T14:38:49;91980.47;;;13.39;69.33
40592;BME280;26301;42.832;23.918;2022-12-10T14:41:18;91979.06;;;13.27;70.00
40592;BME280;26301;42.832;23.918;2022-12-10T14:43:46;91989.75;;;13.21;71.55
40592;BME280;26301;42.832;23.918;2022-12-10T14:46:19;91974.31;;;13.11;71.77
40592;BME280;26301;42.832;23.918;2022-12-10T14:48:50;91986.34;;;13.01;70.91
40592;BME280;26301;42.832;23.918;2022-12-10T14:51:20;91960.06;;;12.89;70.47
40592;BME280;26301;42.832;23.918;2022-12-10T14:53:47;91950.19;;;12.91;70.34
40592;BME280;26301;42.832;23.918;2022-12-10T14:56:30;91971.78;;;13.05;70.60
40592;BME280;26301;42.832;23.918;2022-12-10T14:59:14;91975.88;;;13.12;71.88
40592;BME280;26301;42.832;23.918;2022-12-10T15:01:45;91971.66;;;13.16;70.03
40592;BME280;26301;42.832;23.918;2022-12-10T15:04:18;91961.28;;;13.16;70.63
40592;BME280;26301;42.832;23.918;2022-12-10T15:06:45;91946.16;;;13.04;70.71